Terminal Aerodrome Forecast
Issued by NWS Missoula, MT

Home | Current Version | Previous Version | Text Only | Print | Product List | Glossary On
Versions: 1 2 3 4 5 6 7 8 9 10 11 12 13 14 15 16 17
000
FTUS45 KMSO 271431 AAA
TAFGPI
TAF AMD
KGPI 271431Z 2715/2812 00000KT 4SM -SN BR BKN035 OVC050
     FM271600 19003KT 3SM -SN BR SCT008 OVC025
     FM280000 18004KT 2SM -SN BR SCT006 OVC015=

USA.gov is the U.S. government's official web portal to all federal, state and local government web resources and services.